Map

Track Data

SID SEASON NUMBER BASIN SUBBASIN NAME ISO_TIME NATURE LAT LON WMO_WIND WMO_PRES WMO_AGENCY TRACK_TYPE DIST2LAND LANDFALL IFLAG USA_AGENCY USA_ATCF_ID USA_LAT USA_LON USA_RECORD USA_STATUS USA_WIND USA_PRES USA_SSHS USA_R34_NE USA_R34_SE USA_R34_SW USA_R34_NW USA_R50_NE USA_R50_SE USA_R50_SW USA_R50_NW USA_R64_NE USA_R64_SE USA_R64_SW USA_R64_NW USA_POCI USA_ROCI USA_RMW USA_EYE TOKYO_LAT TOKYO_LON TOKYO_GRADE TOKYO_WIND TOKYO_PRES TOKYO_R50_DIR TOKYO_R50_LONG TOKYO_R50_SHORT TOKYO_R30_DIR TOKYO_R30_LONG TOKYO_R30_SHORT TOKYO_LAND CMA_LAT CMA_LON CMA_CAT CMA_WIND CMA_PRES HKO_LAT HKO_LON HKO_CAT HKO_WIND HKO_PRES NEWDELHI_LAT NEWDELHI_LON NEWDELHI_GRADE NEWDELHI_WIND NEWDELHI_PRES NEWDELHI_CI NEWDELHI_DP NEWDELHI_POCI REUNION_LAT REUNION_LON REUNION_TYPE REUNION_WIND REUNION_PRES REUNION_TNUM REUNION_CI REUNION_RMW REUNION_R34_NE REUNION_R34_SE REUNION_R34_SW REUNION_R34_NW REUNION_R50_NE REUNION_R50_SE REUNION_R50_SW REUNION_R50_NW REUNION_R64_NE REUNION_R64_SE REUNION_R64_SW REUNION_R64_NW BOM_LAT BOM_LON BOM_TYPE BOM_WIND BOM_PRES BOM_TNUM BOM_CI BOM_RMW BOM_R34_NE BOM_R34_SE BOM_R34_SW BOM_R34_NW BOM_R50_NE BOM_R50_SE BOM_R50_SW BOM_R50_NW BOM_R64_NE BOM_R64_SE BOM_R64_SW BOM_R64_NW BOM_ROCI BOM_POCI BOM_EYE BOM_POS_METHOD BOM_PRES_METHOD NADI_LAT NADI_LON NADI_CAT NADI_WIND NADI_PRES WELLINGTON_LAT WELLINGTON_LON WELLINGTON_WIND WELLINGTON_PRES DS824_LAT DS824_LON DS824_STAGE DS824_WIND DS824_PRES TD9636_LAT TD9636_LON TD9636_STAGE TD9636_WIND TD9636_PRES TD9635_LAT TD9635_LON TD9635_WIND TD9635_PRES TD9635_ROCI NEUMANN_LAT NEUMANN_LON NEUMANN_CLASS NEUMANN_WIND NEUMANN_PRES MLC_LAT MLC_LON MLC_CLASS MLC_WIND MLC_PRES USA_GUST BOM_GUST BOM_GUST_PER REUNION_GUST REUNION_GUST_PER USA_SEAHGT USA_SEARAD_NE USA_SEARAD_SE USA_SEARAD_SW USA_SEARAD_NW STORM_SPEED STORM_DIR
2005350N08127 2005 113 WP MM NOT_NAMED 2005-12-15 12:00:00 TS 7.65000 127.450 main 99 45 O_O___________ jtwc_wp WP252005 7.40000 127.600 DB 15 1006 -3 7.90000 127.300 0 19 1006 11 291
2005350N08127 2005 113 WP MM NOT_NAMED 2005-12-15 15:00:00 TS 7.84383 126.944 main 34 0 P_P___________ WP252005 7.69995 127.107 DB 17 1005 -3 7.98771 126.780 0 19 1006 12 296
2005350N08127 2005 113 WP MM NOT_NAMED 2005-12-15 18:00:00 TS 8.15000 126.400 main 11 0 O_O___________ jtwc_wp WP252005 8.10000 126.500 DB 20 1004 -3 8.20000 126.300 0 19 1006 14 304
2005350N08127 2005 113 WP MM NOT_NAMED 2005-12-15 21:00:00 TS 8.61874 125.794 main 0 0 P_P___________ WP252005 8.63767 125.715 DB 22 1003 -3 8.59980 125.873 0 19 1006 15 306
2005350N08127 2005 113 WP MM NOT_NAMED 2005-12-16 00:00:00 TS 9.05000 125.150 main 11 0 O_O___________ jtwc_wp WP252005 9.10000 124.900 DB 25 1002 -3 9.00000 125.400 0 19 1006 14 294
2005350N08127 2005 113 WP MM NOT_NAMED 2005-12-16 03:00:00 TS 9.18242 124.496 main 47 33 P_P___________ WP252005 9.20736 124.204 DB 25 1002 -3 9.15748 124.787 0 19 1006 13 281
2005350N08127 2005 113 WP MM NOT_NAMED 2005-12-16 06:00:00 TS 9.30000 123.850 main 33 0 O_O___________ jtwc_wp WP252005 9.30000 123.600 DB 25 1002 -3 1008 175 25 9.30000 124.100 0 19 1006 13 291
2005350N08127 2005 113 WP MM NOT_NAMED 2005-12-16 09:00:00 TS 9.66243 123.231 main 10 0 P_P___________ WP252005 9.71229 123.085 DB 25 1002 -3 1008 175 25 9.61257 123.378 0 21 1005 14 304
2005350N08127 2005 113 WP MM NOT_NAMED 2005-12-16 12:00:00 TS 10.1000 122.650 main 11 10 O_O___________ jtwc_wp WP252005 10.2000 122.600 DB 25 1002 -3 1008 175 25 10.0000 122.700 1 23 1004 14 309
2005350N08127 2005 113 WP MM NOT_NAMED 2005-12-16 15:00:00 TS 10.5235 122.136 main 0 0 P_P___________ WP252005 10.6024 122.065 DB 25 1003 -3 1008 175 37 10.4446 122.208 1 23 1004 13 306
2005350N08127 2005 113 WP MM NOT_NAMED 2005-12-16 18:00:00 TS 10.8500 121.600 main 34 34 O_O___________ jtwc_wp WP252005 10.9000 121.500 DB 25 1004 -3 1008 175 50 10.8000 121.700 1 23 1004 13 292
2005350N08127 2005 113 WP MM NOT_NAMED 2005-12-16 21:00:00 TS 11.0039 120.929 main 111 76 P_P___________ WP252005 11.0824 120.915 DB 25 1003 -3 1008 175 50 10.9253 120.942 1 23 1004 13 276
2005350N08127 2005 113 WP MM NOT_NAMED 2005-12-17 00:00:00 TS 11.0000 120.250 main 76 15 O_O___________ jtwc_wp WP252005 11.1000 120.300 DB 25 1002 -3 1008 175 50 10.9000 120.200 1 23 1004 12 265
2005350N08127 2005 113 WP MM NOT_NAMED 2005-12-17 03:00:00 TS 10.8873 119.689 main 15 0 P_P___________ WP252005 10.9525 119.650 DB 25 1002 -3 1008 170 50 10.8221 119.727 1 23 1004 11 254
2005350N08127 2005 113 WP MM NOT_NAMED 2005-12-17 06:00:00 TS 10.7000 119.150 main 10 10 O_O___________ jtwc_wp WP252005 10.7000 119.000 DB 25 1002 -3 1008 165 50 10.7000 119.300 1 23 1004 12 253
2005350N08127 2005 113 WP MM NOT_NAMED 2005-12-17 09:00:00 TS 10.5473 118.573 main 46 46 P_P___________ WP252005 10.4723 118.408 DB 25 1002 -3 1008 165 50 10.6224 118.738 1 23 1004 12 253
2005350N08127 2005 113 WP MM NOT_NAMED 2005-12-17 12:00:00 TS 10.3500 117.950 main 93 93 O_O___________ jtwc_wp WP252005 10.2000 117.800 DB 25 1002 -3 1008 165 50 10.5000 118.100 1 23 1004 14 250
2005350N08127 2005 113 WP MM NOT_NAMED 2005-12-17 15:00:00 TS 10.0726 117.239 main 120 111 P_P___________ WP252005 9.87253 117.100 DB 25 1002 -3 1008 165 50 10.2727 117.377 1 23 1004 15 246
2005350N08127 2005 113 WP MM NOT_NAMED 2005-12-17 18:00:00 TS 9.75000 116.550 main 141 141 O_O___________ jtwc_wp WP252005 9.50000 116.400 DB 25 1002 -3 1008 165 50 10.0000 116.700 1 23 1004 14 242
2005350N08127 2005 113 WP MM NOT_NAMED 2005-12-17 21:00:00 TS 9.41351 116.006 main 168 168 P_P___________ WP252005 9.07729 115.793 DB 25 1002 -3 1008 165 50 9.74973 116.220 1 23 1004 12 238
2005350N08127 2005 113 WP MM NOT_NAMED 2005-12-18 00:00:00 TS 9.10000 115.500 main 205 205 O_O___________ jtwc_wp WP252005 8.70000 115.200 DB 25 1002 -3 1008 165 50 9.50000 115.800 1 23 1004 12 242
2005350N08127 2005 113 WP MM NOT_NAMED 2005-12-18 03:00:00 TS 8.84495 114.933 main 259 259 P_P___________ WP252005 8.44750 114.543 DB 27 1001 -3 1008 165 50 9.24239 115.323 1 23 1003 12 248
2005350N08127 2005 113 WP MM NOT_NAMED 2005-12-18 06:00:00 TS 8.65000 114.350 main 311 310 O_O___________ jtwc_wp WP252005 8.30000 113.900 DB 30 1000 -3 1008 165 50 9.00000 114.800 1 23 1002 12 253
2005350N08127 2005 113 WP MM NOT_NAMED 2005-12-18 09:00:00 TS 8.49872 113.764 main 366 366 P_P___________ WP252005 8.21986 113.335 DB 30 1000 -3 1007 172 47 8.77757 114.192 1 26 1001 12 258
2005350N08127 2005 113 WP MM NOT_NAMED 2005-12-18 12:00:00 TS 8.40000 113.200 main 409 409 O_O___________ jtwc_wp WP252005 8.20000 112.800 DB 30 1000 -3 1006 180 45 8.60000 113.600 1 29 1000 11 260
2005350N08127 2005 113 WP MM NOT_NAMED 2005-12-18 15:00:00 TS 8.30128 112.640 main 442 442 P_P___________ WP252005 8.14764 112.168 DB 32 998 -3 1006 180 45 8.45491 113.113 1 29 1000 10 264
2005350N08127 2005 113 WP MM NOT_NAMED 2005-12-18 18:00:00 TS 8.30000 112.200 main 459 459 O_O___________ jtwc_wp WP252005 8.20000 111.700 TS 35 997 0 1006 180 45 8.40000 112.700 1 29 1000 7 285
2005350N08127 2005 113 WP MM NOT_NAMED 2005-12-18 21:00:00 TS 8.47368 111.973 main 462 438 P_P___________ WP252005 8.47738 111.632 TS 37 995 0 1006 180 42 8.46997 112.313 1 29 1000 5 319
2005350N08127 2005 113 WP MM NOT_NAMED 2005-12-19 00:00:00 TS 8.70000 111.850 main 438 407 O_O___________ jtwc_wp WP252005 8.80000 111.700 TS 40 994 0 40 35 35 40 1006 180 40 8.60000 112.000 1 29 1000 5 326
2005350N08127 2005 113 WP MM NOT_NAMED 2005-12-19 03:00:00 TS 8.85871 111.708 main 407 391 P_P___________ WP252005 9.00998 111.638 TS 42 992 0 40 35 35 40 1006 180 40 8.70745 111.777 1 29 1000 4 311
2005350N08127 2005 113 WP MM NOT_NAMED 2005-12-19 06:00:00 TS 8.95556 111.556 main 391 375 O_OO__________ jtwc_wp WP252005 9.10000 111.500 TS 45 991 0 40 35 35 40 1006 180 40 8.80000 111.600 1 29 1000 9.00000 111.600 TD 30 996 4 294
2005350N08127 2005 113 WP MM NOT_NAMED 2005-12-19 09:00:00 TS 9.02450 111.338 main 368 345 P_PP__________ WP252005 9.02250 111.280 TS 42 992 0 40 35 35 40 1006 180 35 8.86498 111.408 1 29 1000 9.34751 111.315 TD 30 996 5 286
2005350N08127 2005 113 WP MM NOT_NAMED 2005-12-19 12:00:00 TS 9.09091 111.073 main 345 315 O_OO__________ jtwc_wp WP252005 8.90000 111.000 TS 40 994 0 40 35 35 40 1006 180 30 8.90000 111.200 1 29 1000 9.60000 111.000 TD 30 996 6 285
2005350N08127 2005 113 WP MM NOT_NAMED 2005-12-19 15:00:00 TS 9.17083 110.774 main 315 296 P_PP__________ WP252005 8.89999 110.708 TS 37 995 0 40 35 35 40 1006 180 30 8.92996 110.973 1 29 1000 9.68253 110.642 TD 30 996 6 274
2005350N08127 2005 113 WP MM NOT_NAMED 2005-12-19 18:00:00 TS 9.13333 110.467 main 305 293 O_OO__________ jtwc_wp WP252005 8.90000 110.400 TS 35 997 0 40 35 35 40 1006 180 30 8.90000 110.700 1 29 1000 9.60000 110.300 TD 30 996 6 253
2005350N08127 2005 113 WP MM NOT_NAMED 2005-12-19 21:00:00 TS 8.98913 110.169 main 296 290 P_PP__________ WP252005 8.82249 110.092 TS 35 997 0 40 35 35 40 1006 170 30 8.75746 110.380 1 29 1000 9.38745 110.035 TD 27 998 7 240
2005350N08127 2005 113 WP MM NOT_NAMED 2005-12-20 00:00:00 TS 8.79000 109.860 main 293 284 O_OO__________ jtwc_wp WP252005 8.70000 109.800 TS 35 997 0 40 35 35 40 1006 160 30 8.60000 110.000 1 29 1000 9.10000 109.800 TD 25 1000 7 238
2005350N08127 2005 113 WP MM NOT_NAMED 2005-12-20 03:00:00 TS 8.61126 109.559 main 293 284 P_PP__________ WP252005 8.54244 109.558 TS 32 998 -1 8.52262 109.565 1 26 1002 8.83755 109.555 TD 25 1000 7 240
2005350N08127 2005 113 WP MM NOT_NAMED 2005-12-20 06:00:00 TS 8.45000 109.267 main 284 280 O_OO__________ jtwc_wp WP252005 8.40000 109.300 TD 30 1000 -1 8.50000 109.100 1 23 1004 8.60000 109.300 TD 25 1000 7 245
2005350N08127 2005 113 WP MM NOT_NAMED 2005-12-20 09:00:00 TS 8.33500 108.965 main 290 270 P_____________ WP252005 8.33500 108.965 TD 27 1001 -1 1 TD 7 257
2005350N08127 2005 113 WP MM NOT_NAMED 2005-12-20 12:00:00 TS 8.30000 108.600 main 270 243 O_____________ jtwc_wp WP252005 8.30000 108.600 TD 25 1002 -1 7 264
2005350N08127 2005 113 WP MM NOT_NAMED 2005-12-20 15:00:00 TS 8.25747 108.250 main 243 219 P_____________ WP252005 8.25747 108.250 TD 25 1002 -1 7 262
2005350N08127 2005 113 WP MM NOT_NAMED 2005-12-20 18:00:00 TS 8.20000 107.900 main 219 204 O_____________ jtwc_wp WP252005 8.20000 107.900 TD 25 1002 -1 7 257
2005350N08127 2005 113 WP MM NOT_NAMED 2005-12-20 21:00:00 TS 8.09993 107.565 main 204 189 P_____________ WP252005 8.09993 107.565 TD 25 1002 -1 7 254
2005350N08127 2005 113 WP MM NOT_NAMED 2005-12-21 00:00:00 TS 8.00000 107.200 main 189 176 O_____________ jtwc_wp WP252005 8.00000 107.200 TD 25 1002 -1 8 258
2005350N08127 2005 113 WP MM NOT_NAMED 2005-12-21 03:00:00 TS 7.93764 106.770 main 184 149 P_____________ WP252005 7.93764 106.770 TD 25 1002 -1 9 264
2005350N08127 2005 113 WP MM NOT_NAMED 2005-12-21 06:00:00 TS 7.90000 106.300 main 149 O_____________ jtwc_wp WP252005 7.90000 106.300 TD 25 1002 -1 9 265

Digital Typhoon Data and Search

About IBTrACS Database

This database is a web-friendly format of International Best Track Archive for Climate Stewardship (IBTrACS), a global best track data archive curated by NOAA dating back to 1842.

Updated: 2021-12-03